Aviation Digital Data Service (ADDS)

Output produced by METARs form (0632 UTC 22 October 2021)
found at http://www.aviationweather.gov/metar/data/
 
KFHR 220615Z AUTO 15013G24KT 6SM -RA BR BKN012 BKN070 OVC085 12/11 A2975 RMK AO2 PK WND 16027/0600 P0001 T01170106 TSNO $
KORS 220615Z AUTO 17011G21KT 4SM -RA BR SCT020 BKN036 OVC055 13/12 A2973 RMK AO2
KBLI 220553Z AUTO 16012G25KT 9SM -RA FEW025 FEW047 OVC070 14/12 A2975 RMK AO2 SLP080 P0003 60013 T01390117 10206 20128 51016
KBLI 220528Z 2206/2306 14009KT 6SM -RA BR SCT020 OVC070 
     FM220800 15008KT P6SM -RA OVC022 
     FM221200 17004KT P6SM -SHRA BKN025 OVC035 
     FM221800 17006KT P6SM -SHRA BKN030 OVC040 
     FM230300 17005KT P6SM VCSH BKN050
       
KBVS 220615Z AUTO 13007G12KT 6SM BR FEW037 SCT050 OVC065 13/12 A2978 RMK A01
KNUW 220556Z 14020G28KT 9SM -RA FEW038 BKN060 OVC080 13/11 A2979 RMK AO2 PK WND 13031/0503 SLP087 P0006 60017 T01330111 10206 20128 51017 $
TAF AMD KNUW 2123/2223 13014G22KT 9999 VCSH SCT040 BKN060 BKN120 OVC180 640909
530009 QNH2963INS 
     TEMPO 2123/2203 14018G27KT 8000 -RA BR BKN028 OVC050 
     FM220300 15020G36KT 9000 -RA BR BKN030 OVC050 640809 530009 QNH2970INS 
     TEMPO 2204/2210 15016G24KT 6000 RA BR BKN025 OVC050 
     FM221000 15012G20KT 9999 VCSH SCT010 BKN060 BKN110 640709 500000 QNH2976INS

     FM221600 16010KT 9999 VCSH BKN015 BKN040 OVC070 640709 QNH2979INS T21/2123Z
T09/2212Z AMD 2310 FS30046
       
KPAE 220624Z AUTO 15010G18KT 4SM -RA BR SCT012 BKN019 OVC055 12/11 A2981 RMK AO2 P0004 T01220111 $
KPAE 220528Z 2206/2306 19010G18KT 4SM RA BR SCT020 OVC040 
     FM220700 18010KT 6SM -RA BR OVC025 
     FM221200 17006KT 6SM -RA BR BKN020 OVC030 
     FM221900 19008KT P6SM VCSH BKN030 OVC040 
     FM230200 18007KT P6SM VCSH BKN040
       
KBFI 220553Z 14008KT 8SM -RA OVC070 13/12 A2981 RMK AO2 SLP094 P0005 60032 T01280122 10206 20128 51007 $
KBFI 220528Z 2206/2306 14007KT 4SM RA BR SCT015 OVC030 
     FM220700 15006KT 6SM -RA BR OVC025 
     FM221100 14005KT P6SM -SHRA BKN030 OVC040 
     FM221900 17006KT P6SM VCSH BKN035 OVC050 
     FM230200 16005KT P6SM VCSH BKN040
       
KSEA 220553Z 13008KT 100V160 6SM -RA BR OVC065 14/12 A2981 RMK AO2 SLP099 P0007 60040 T01390117 10200 20122 51004
KSEA 220528Z 2206/2312 15008KT 4SM RA BR SCT015 OVC025 
     FM220700 17006KT 6SM -RA BR OVC020 
     FM221100 17006KT P6SM -SHRA BKN025 OVC035 
     FM221900 19007KT P6SM VCSH BKN030 OVC050 
     FM230200 20007KT P6SM VCSH BKN035 
     FM231000 16007KT P6SM -RA OVC030
       
CYYJ 220624Z 00000KT 15SM BKN006 BKN015 OVC080 11/11 A2973 RMK SF5SC2AC1 SLP069
TAF CYYJ 220547Z 2206/2306 15007KT P6SM -RA SCT010 OVC040 
     TEMPO 2206/2209 3SM -RA BR BKN008 OVC030 
     FM220900 VRB03KT P6SM FEW020 BKN060 OVC120 
     TEMPO 2209/2220 P6SM -SHRA BKN020 BKN050 
     FM222000 22008KT P6SM FEW040 SCT100 
     FM230500 22005KT P6SM SCT050 BKN100 RMK NXT FCST BY 221200Z
       
CYVR 220621Z 10014KT 12SM RA OVC012 12/12 A2974 RMK SC8 SLP073
TAF CYVR 220547Z 2206/2312 08012G22KT P6SM -RA SCT015 OVC070 
     TEMPO 2206/2208 4SM RA BR BKN015 OVC040 
     BECMG 2206/2208 11010KT 
     FM220800 11010KT P6SM SCT020 OVC040 
     TEMPO 2208/2222 6SM -SHRA BR BKN015 OVC040 
     FM222200 14008KT P6SM FEW030 BKN060 
     FM230600 09010G20KT P6SM -RA SCT020 OVC050 RMK NXT FCST BY 220900Z